createdAt,value
2024-03-25T00:04:00.283Z,98609.83
2024-03-25T00:09:02.445Z,98603.16
2024-03-25T00:14:07.517Z,98598.13
2024-03-25T00:19:09.604Z,98590.61
2024-03-25T00:24:11.696Z,98587.94
2024-03-25T00:29:13.733Z,98588.93
2024-03-25T00:34:15.955Z,98588.72
2024-03-25T00:39:18.668Z,98592.19
2024-03-25T00:44:20.836Z,98586.58
2024-03-25T00:49:23.019Z,98578.94
2024-03-25T00:54:25.104Z,98575.29
2024-03-25T00:59:27.129Z,98575.86
2024-03-25T01:04:29.768Z,98578.83
2024-03-25T01:09:32.482Z,98575.52
2024-03-25T01:14:34.419Z,98573.91
2024-03-25T01:19:36.328Z,98572.80
2024-03-25T01:24:38.320Z,98574.02
2024-03-25T01:29:40.503Z,98569.27
2024-03-25T01:34:42.589Z,98566.86
2024-03-25T01:39:44.672Z,98566.60
2024-03-25T01:44:47.779Z,98571.28
2024-03-25T01:49:54.329Z,98570.32
2024-03-25T01:54:57.169Z,98573.86
2024-03-25T01:59:59.636Z,98575.07
2024-03-25T02:05:02.972Z,98575.36
2024-03-25T02:10:05.350Z,98571.23
2024-03-25T02:15:08.670Z,98568.67
2024-03-25T02:20:12.610Z,98568.23
2024-03-25T02:25:15.096Z,98567.17
2024-03-25T02:30:17.275Z,98567.52
2024-03-25T02:35:19.191Z,98567.99
2024-03-25T02:40:23.402Z,98570.85
2024-03-25T02:45:25.404Z,98572.74
2024-03-25T02:50:27.397Z,98572.98
2024-03-25T02:55:29.436Z,98571.55
2024-03-25T03:00:31.424Z,98571.14
2024-03-25T03:05:33.630Z,98574.65
2024-03-25T03:10:35.469Z,98574.84
2024-03-25T03:15:37.359Z,98576.46
2024-03-25T03:20:39.444Z,98574.40
2024-03-25T03:25:41.938Z,98578.21
2024-03-25T03:30:44.738Z,98579.43
2024-03-25T03:35:46.611Z,98581.54
2024-03-25T03:41:02.326Z,98587.11
2024-03-25T03:46:04.812Z,98582.09
2024-03-25T03:51:07.610Z,98586.29
2024-03-25T03:56:10.303Z,98587.51
2024-03-25T04:01:16.894Z,98592.67
2024-03-25T04:06:19.218Z,98594.57
2024-03-25T04:11:21.375Z,98598.85
2024-03-25T04:16:23.578Z,98599.14
2024-03-25T04:21:25.475Z,98596.25
2024-03-25T04:26:27.372Z,98596.86
2024-03-25T04:31:29.292Z,98604.15
2024-03-25T04:36:31.736Z,98606.54
2024-03-25T04:41:33.764Z,98606.36
2024-03-25T04:46:35.792Z,98614.73
2024-03-25T04:51:38.164Z,98622.67
2024-03-25T04:56:40.010Z,98622.81
2024-03-25T05:01:41.953Z,98628.52
2024-03-25T05:06:43.813Z,98627.38
2024-03-25T05:11:46.187Z,98628.67
2024-03-25T05:16:49.678Z,98626.59
2024-03-25T05:21:51.864Z,98626.24
2024-03-25T05:26:53.756Z,98629.66
2024-03-25T05:32:02.858Z,98632.53
2024-03-25T05:37:05.845Z,98642.13
2024-03-25T05:42:08.581Z,98649.59
2024-03-25T05:47:10.561Z,98658.17
2024-03-25T05:52:12.425Z,98665.60
2024-03-25T05:57:14.379Z,98668.61
2024-03-25T06:02:16.360Z,98674.90
2024-03-25T06:07:18.619Z,98679.00
2024-03-25T06:12:20.654Z,98679.45
2024-03-25T06:17:22.765Z,98686.33
2024-03-25T06:22:24.710Z,98691.80
2024-03-25T06:27:26.806Z,98697.34
2024-03-25T06:32:47.744Z,98700.65
2024-03-25T06:37:49.708Z,98703.34
2024-03-25T06:42:51.698Z,98708.84
2024-03-25T06:47:53.784Z,98714.69
2024-03-25T06:52:56.026Z,98719.46
2024-03-25T06:57:58.151Z,98721.33
2024-03-25T07:03:01.000Z,98729.36
2024-03-25T07:08:03.447Z,98731.42
2024-03-25T07:13:06.447Z,98733.10
2024-03-25T07:18:08.309Z,98736.95
2024-03-25T07:23:10.760Z,98742.55
2024-03-25T07:28:12.900Z,98744.76
2024-03-25T07:33:14.689Z,98750.64
2024-03-25T07:38:16.777Z,98757.11
2024-03-25T07:43:18.846Z,98765.63
2024-03-25T07:48:20.845Z,98766.17
2024-03-25T07:53:22.688Z,98771.57
2024-03-25T07:58:25.387Z,98775.54
2024-03-25T08:03:27.675Z,98781.84
2024-03-25T08:08:30.291Z,98785.23
2024-03-25T08:13:32.371Z,98790.59
2024-03-25T08:18:34.843Z,98792.75
2024-03-25T08:23:36.962Z,98791.89
2024-03-25T08:28:39.170Z,98792.95
2024-03-25T08:33:41.225Z,98792.96
2024-03-25T08:38:43.330Z,98792.73
2024-03-25T08:43:45.277Z,98794.36
2024-03-25T08:48:47.353Z,98797.63
2024-03-25T08:53:50.719Z,98796.88
2024-03-25T08:58:55.424Z,98800.63
2024-03-25T09:03:57.750Z,98803.29
2024-03-25T09:09:18.500Z,98805.80
2024-03-25T09:14:20.465Z,98807.96
2024-03-25T09:19:23.458Z,98809.38
2024-03-25T09:24:25.543Z,98814.47
2024-03-25T09:29:27.538Z,98817.92
2024-03-25T09:34:29.601Z,98821.98
2024-03-25T09:39:32.675Z,98826.52
2024-03-25T09:44:35.386Z,98828.67
2024-03-25T09:49:37.858Z,98831.44
2024-03-25T09:54:42.859Z,98836.44
2024-03-25T09:59:44.875Z,98839.21
2024-03-25T10:04:49.884Z,98841.45
2024-03-25T10:09:52.429Z,98843.14
2024-03-25T10:14:54.576Z,98841.60
2024-03-25T10:19:56.579Z,98844.57
2024-03-25T10:24:59.230Z,98846.79
2024-03-25T10:30:02.672Z,98843.05
2024-03-25T10:35:05.747Z,98849.56
2024-03-25T10:40:12.895Z,98856.64
2024-03-25T10:45:14.829Z,98853.06
2024-03-25T10:50:18.965Z,98854.27
2024-03-25T10:55:22.881Z,98863.77
2024-03-25T11:00:25.021Z,98860.44
2024-03-25T11:05:28.009Z,98865.97
2024-03-25T11:10:30.611Z,98867.27
2024-03-25T11:15:44.228Z,98871.70
2024-03-25T11:20:46.322Z,98867.88
2024-03-25T11:25:55.982Z,98869.20
2024-03-25T11:30:57.847Z,98861.31
2024-03-25T11:36:00.690Z,98859.63
2024-03-25T11:41:03.009Z,98851.50
2024-03-25T11:46:06.463Z,98850.61
2024-03-25T11:51:13.238Z,98850.82
2024-03-25T11:56:15.495Z,98850.75
2024-03-25T12:01:17.519Z,98846.38
2024-03-25T12:06:19.702Z,98851.16
2024-03-25T12:11:21.947Z,98854.20
2024-03-25T12:16:24.903Z,98859.41
2024-03-25T12:21:26.985Z,98865.08
2024-03-25T12:26:32.443Z,98869.10
2024-03-25T12:31:34.938Z,98865.92
2024-03-25T12:36:36.971Z,98870.02
2024-03-25T12:41:39.091Z,98866.89
2024-03-25T12:46:41.175Z,98866.02
2024-03-25T12:51:43.364Z,98864.92
2024-03-25T12:56:45.369Z,98870.01
2024-03-25T13:01:47.427Z,98869.02
2024-03-25T13:06:49.567Z,98875.95
2024-03-25T13:11:51.667Z,98875.23
2024-03-25T13:16:53.853Z,98872.58
2024-03-25T13:21:59.146Z,98872.59
2024-03-25T13:27:01.437Z,98880.11
2024-03-25T13:32:05.941Z,98877.73
2024-03-25T13:37:08.350Z,98871.73
2024-03-25T13:42:10.250Z,98874.34
2024-03-25T13:47:12.365Z,98874.08
2024-03-25T13:52:14.379Z,98876.60
2024-03-25T13:57:16.818Z,98873.89
2024-03-25T14:02:19.058Z,98878.14
2024-03-25T14:07:21.134Z,98880.66
2024-03-25T14:12:24.505Z,98886.60
2024-03-25T14:17:26.838Z,98890.05
2024-03-25T14:22:28.899Z,98893.86
2024-03-25T14:27:30.800Z,98897.15
2024-03-25T14:32:32.708Z,98896.10
2024-03-25T14:37:34.545Z,98891.70
2024-03-25T14:42:37.593Z,98889.86
2024-03-25T14:47:39.541Z,98892.98
2024-03-25T14:52:41.378Z,98893.81
2024-03-25T15:40:52.707Z,98914.59
2024-03-25T15:46:02.830Z,98912.77
2024-03-25T15:51:06.707Z,98911.27
2024-03-25T15:56:10.123Z,98917.42
2024-03-25T16:01:13.019Z,98925.02
2024-03-25T16:06:16.072Z,98929.40
2024-03-25T16:11:21.517Z,98937.70
2024-03-25T16:16:24.568Z,98934.83
2024-03-25T16:21:28.471Z,98942.05
2024-03-25T16:26:31.488Z,98945.73
2024-03-25T16:31:34.464Z,98952.62
2024-03-25T16:36:37.523Z,98955.27
2024-03-25T16:41:40.680Z,98961.19
2024-03-25T16:46:44.203Z,98962.27
2024-03-25T16:51:47.136Z,98972.73
2024-03-25T16:56:50.047Z,98981.36
2024-03-25T17:01:56.432Z,98982.35
2024-03-25T17:06:59.520Z,98985.00
2024-03-25T17:12:02.621Z,98988.44
2024-03-25T17:17:05.977Z,98997.94
2024-03-25T17:22:08.835Z,99009.38
2024-03-25T17:27:12.086Z,99014.27
2024-03-25T17:32:15.058Z,99023.23
2024-03-25T17:37:18.150Z,99022.77
2024-03-25T17:42:21.286Z,99025.11
2024-03-25T17:47:24.254Z,99025.66
2024-03-25T17:52:27.472Z,99035.52
2024-03-25T17:57:31.363Z,99044.13
2024-03-25T18:02:34.823Z,99052.79
2024-03-25T18:07:39.087Z,99056.48
2024-03-25T18:12:41.889Z,99062.11
2024-03-25T18:17:44.836Z,99063.81
2024-03-25T18:22:47.954Z,99066.83
2024-03-25T18:27:50.911Z,99067.75
2024-03-25T18:32:53.781Z,99066.72
2024-03-25T18:37:56.797Z,99065.33
2024-03-25T18:42:59.700Z,99068.72
2024-03-25T18:48:03.387Z,99077.06
2024-03-25T18:53:06.361Z,99080.01
2024-03-25T18:58:10.773Z,99084.77
2024-03-25T19:03:13.828Z,99089.45
2024-03-25T19:08:16.776Z,99088.66
2024-03-25T19:13:19.604Z,99096.31
2024-03-25T19:18:22.731Z,99097.33
2024-03-25T19:23:25.871Z,99101.58
2024-03-25T19:28:29.133Z,99103.78
2024-03-25T19:33:32.025Z,99111.73
2024-03-25T19:38:35.327Z,99115.00
2024-03-25T19:43:39.284Z,99119.52
2024-03-25T19:48:42.567Z,99124.52
2024-03-25T19:53:45.439Z,99125.48
2024-03-25T19:58:48.357Z,99129.86
2024-03-25T20:03:52.780Z,99124.67
2024-03-25T20:08:55.724Z,99124.39
2024-03-25T20:13:58.614Z,99124.27
2024-03-25T20:19:01.897Z,99120.92
2024-03-25T20:24:05.524Z,99127.27
2024-03-25T20:29:08.452Z,99129.52
2024-03-25T20:34:11.461Z,99138.58
2024-03-25T20:39:14.295Z,99140.39
2024-03-25T20:44:17.703Z,99150.45
2024-03-25T20:49:20.701Z,99152.77
2024-03-25T20:54:25.715Z,99157.54
2024-03-25T20:59:39.360Z,99156.73
2024-03-25T21:04:42.929Z,99156.95
2024-03-25T21:09:46.056Z,99161.05
2024-03-25T21:14:48.914Z,99164.10
2024-03-25T21:19:52.475Z,99161.31
2024-03-25T21:24:55.385Z,99163.20
2024-03-25T21:29:58.667Z,99165.42
2024-03-25T21:35:01.620Z,99171.94
2024-03-25T21:40:06.049Z,99172.42
2024-03-25T21:45:09.731Z,99172.33
2024-03-25T21:50:12.678Z,99173.98
2024-03-25T21:55:15.700Z,99181.40
2024-03-25T22:00:18.710Z,99187.61
2024-03-25T22:05:22.775Z,99188.02
2024-03-25T22:15:34.381Z,99194.02
2024-03-25T22:20:40.382Z,99195.55
2024-03-25T22:25:43.255Z,99194.11
2024-03-25T22:30:46.194Z,99193.71
2024-03-25T22:36:00.731Z,99191.16
2024-03-25T22:41:03.672Z,99193.04
2024-03-25T22:46:06.562Z,99201.18
2024-03-25T22:51:09.620Z,99206.20
2024-03-25T22:56:13.921Z,99205.90
2024-03-25T23:01:16.684Z,99204.01
2024-03-25T23:06:19.951Z,99212.62
2024-03-25T23:11:22.912Z,99218.89
2024-03-25T23:16:29.149Z,99223.22
2024-03-25T23:21:33.691Z,99222.58
2024-03-25T23:26:36.683Z,99223.56
2024-03-25T23:31:39.519Z,99215.01
2024-03-25T23:36:42.407Z,99218.59
2024-03-25T23:41:45.203Z,99224.63
2024-03-25T23:46:48.103Z,99224.73
2024-03-25T23:51:51.053Z,99227.23
2024-03-25T23:56:53.862Z,99225.27
